Terminal Aerodrome Forecast
Issued by NWS

Home | Current Version | Previous Version | Text Only | Print | Product List | Glossary On
Versions: 1 2 3 4 5 6 7 8 9 10 11 12 13 14 15 16 17 18 19
181
FTUS43 KILX 061740
TAFBMI
TAF
KBMI 061740Z 0618/0718 21011KT P6SM FEW040
     FM061900 22011KT P6SM SCT045
     FM070300 21009KT P6SM BKN250
     FM070800 22012KT P6SM BKN110
     FM071400 24015G22KT P6SM BKN100=

USA.gov is the U.S. government's official web portal to all federal, state and local government web resources and services.